createdAt,value
2023-10-10T00:02:48.579Z,13
2023-10-10T00:08:44.819Z,12.6
2023-10-10T00:14:37.106Z,13.4
2023-10-10T00:20:29.274Z,12.1
2023-10-10T00:26:22.548Z,14.1
2023-10-10T00:32:13.633Z,13.6
2023-10-10T00:38:06.569Z,17.1
2023-10-10T00:43:59.725Z,13.6
2023-10-10T00:49:50.658Z,14.1
2023-10-10T00:55:40.747Z,13.9
2023-10-10T01:01:33.399Z,13.6
2023-10-10T01:07:25.493Z,11.5
2023-10-10T01:13:19.551Z,13
2023-10-10T01:19:13.426Z,12
2023-10-10T01:25:06.434Z,13.5
2023-10-10T01:30:58.996Z,12.6
2023-10-10T01:36:51.119Z,14.3
2023-10-10T01:42:43.472Z,13.6
2023-10-10T01:48:37.198Z,12.1
2023-10-10T01:54:30.489Z,11.5
2023-10-10T02:00:22.901Z,14.3
2023-10-10T02:06:12.797Z,15.6
2023-10-10T02:12:05.360Z,11.4
2023-10-10T02:17:59.902Z,12.6
2023-10-10T02:23:52.392Z,12.9
2023-10-10T02:29:44.557Z,14.1
2023-10-10T02:35:37.109Z,13.5
2023-10-10T02:41:30.618Z,13.3
2023-10-10T02:47:23.255Z,15.2
2023-10-10T02:53:17.036Z,15.3
2023-10-10T02:59:08.852Z,14.4
2023-10-10T03:05:02.131Z,12.7
2023-10-10T03:10:54.783Z,13.7
2023-10-10T03:16:48.958Z,11.3
2023-10-10T03:22:41.214Z,14.5
2023-10-10T03:28:35.248Z,14.3
2023-10-10T03:34:28.078Z,14.3
2023-10-10T03:40:22.697Z,16.4
2023-10-10T03:46:16.258Z,15.6
2023-10-10T03:52:08.404Z,12.2
2023-10-10T03:58:01.054Z,14.3
2023-10-10T04:03:55.405Z,13.9
2023-10-10T04:09:47.319Z,15.6
2023-10-10T04:15:40.279Z,16.3
2023-10-10T04:21:32.990Z,20
2023-10-10T04:27:25.334Z,14.1
2023-10-10T04:33:18.156Z,16.9
2023-10-10T04:39:12.702Z,16.1
2023-10-10T04:45:05.750Z,16.9
2023-10-10T04:51:00.390Z,18.2
2023-10-10T04:56:54.656Z,15.8
2023-10-10T05:02:46.909Z,19.7
2023-10-10T05:08:39.606Z,15.9
2023-10-10T05:14:33.499Z,13.9
2023-10-10T05:20:25.699Z,18.3
2023-10-10T05:26:18.429Z,15.7
2023-10-10T05:32:12.306Z,19.5
2023-10-10T05:38:04.533Z,16
2023-10-10T05:43:55.050Z,18.1
2023-10-10T05:49:46.803Z,22.7
2023-10-10T05:55:39.213Z,16.8
2023-10-10T06:01:33.857Z,17
2023-10-10T06:07:25.700Z,20.1
2023-10-10T06:13:19.534Z,18.1
2023-10-10T06:19:12.096Z,16
2023-10-10T06:25:07.758Z,18.8
2023-10-10T06:31:01.752Z,16.7
2023-10-10T06:36:55.946Z,15.5
2023-10-10T06:42:50.211Z,15.6
2023-10-10T06:48:42.339Z,19.7
2023-10-10T06:54:35.490Z,21.9
2023-10-10T07:00:28.514Z,17.5
2023-10-10T07:06:22.329Z,19.9
2023-10-10T07:12:14.259Z,17.8
2023-10-10T07:18:06.545Z,19.5
2023-10-10T07:23:59.349Z,19.4
2023-10-10T07:29:53.844Z,18.7
2023-10-10T07:35:46.817Z,18.4
2023-10-10T07:41:39.693Z,22.9
2023-10-10T07:47:34.777Z,22.9
2023-10-10T07:53:28.859Z,19.6
2023-10-10T07:59:23.169Z,22.8
2023-10-10T08:05:18.576Z,17.7
2023-10-10T08:11:09.392Z,16
2023-10-10T08:17:03.985Z,20
2023-10-10T08:22:56.549Z,22.7
2023-10-10T08:28:51.420Z,19.7
2023-10-10T08:34:44.050Z,19
2023-10-10T08:40:39.611Z,20.9
2023-10-10T08:46:34.291Z,18.8
2023-10-10T08:52:27.224Z,15.2
2023-10-10T08:58:19.782Z,17.7
2023-10-10T09:04:14.305Z,18.4
2023-10-10T09:10:08.901Z,16.5
2023-10-10T09:16:00.123Z,14.1
2023-10-10T09:21:54.963Z,16.8
2023-10-10T09:27:47.930Z,16.6
2023-10-10T09:33:40.847Z,15.1
2023-10-10T09:39:33.971Z,16.2
2023-10-10T09:45:26.275Z,15.1
2023-10-10T09:51:17.914Z,16.2
2023-10-10T09:57:09.821Z,14.7
2023-10-10T10:03:02.359Z,14.2
2023-10-10T10:08:53.871Z,16
2023-10-10T10:14:47.774Z,17.5
2023-10-10T10:20:41.643Z,13.4
2023-10-10T10:26:34.066Z,13.6
2023-10-10T10:32:28.372Z,14.8
2023-10-10T10:38:21.985Z,16.2
2023-10-10T10:44:14.103Z,15.1
2023-10-10T10:50:07.637Z,17.1
2023-10-10T10:56:00.904Z,12.6
2023-10-10T11:01:56.043Z,17.1
2023-10-10T11:07:50.897Z,13
2023-10-10T11:13:42.666Z,11.5
2023-10-10T11:19:35.286Z,15.2
2023-10-10T11:25:28.919Z,13
2023-10-10T11:31:24.740Z,12.6
2023-10-10T11:37:18.671Z,14.6
2023-10-10T11:43:13.062Z,16.5
2023-10-10T11:49:05.530Z,15
2023-10-10T11:54:58.022Z,13.2
2023-10-10T12:00:55.444Z,15.3
2023-10-10T12:06:48.612Z,14.1
2023-10-10T12:12:40.668Z,15.7
2023-10-10T12:18:34.328Z,12.7
2023-10-10T12:24:27.034Z,13.2
2023-10-10T12:30:21.631Z,10.8
2023-10-10T12:36:14.397Z,14.4
2023-10-10T12:42:09.013Z,14.9
2023-10-10T12:48:03.554Z,11.4
2023-10-10T12:53:58.244Z,10.6
2023-10-10T12:59:52.293Z,15.9
2023-10-10T13:05:46.465Z,13.3
2023-10-10T13:11:39.975Z,11.8
2023-10-10T13:17:35.555Z,13.3
2023-10-10T13:23:30.007Z,11.6
2023-10-10T13:29:24.275Z,11.9
2023-10-10T13:35:17.022Z,13.4
2023-10-10T13:41:11.628Z,16.4
2023-10-10T13:47:04.188Z,12.5
2023-10-10T13:52:56.949Z,13.8
2023-10-10T13:58:52.166Z,14.4
2023-10-10T14:04:46.589Z,19.5
2023-10-10T14:10:37.432Z,16.6
2023-10-10T14:16:28.755Z,14.1
2023-10-10T14:22:23.017Z,11.9
2023-10-10T14:28:20.593Z,14
2023-10-10T14:34:12.583Z,16.9
2023-10-10T14:40:04.913Z,13.6
2023-10-10T14:45:57.536Z,14.2
2023-10-10T14:51:50.572Z,15.4
2023-10-10T14:57:44.853Z,13.7
2023-10-10T15:03:37.192Z,12.3
2023-10-10T15:09:30.013Z,13.1
2023-10-10T15:15:24.866Z,15
2023-10-10T15:21:19.183Z,16.4
2023-10-10T15:27:12.871Z,13.6
2023-10-10T15:33:04.221Z,12.5
2023-10-10T15:38:56.088Z,16.1
2023-10-10T15:44:48.615Z,16.8
2023-10-10T15:50:44.939Z,16.9
2023-10-10T15:56:36.753Z,15.8
2023-10-10T16:02:28.730Z,17.6
2023-10-10T16:08:21.673Z,15.5
2023-10-10T16:14:16.016Z,14.9
2023-10-10T16:20:09.365Z,14.3
2023-10-10T16:26:01.818Z,13.1
2023-10-10T16:31:56.325Z,16.6
2023-10-10T16:37:50.953Z,14.2
2023-10-10T16:44:05.290Z,18.2
2023-10-10T16:49:58.268Z,16.8
2023-10-10T16:55:52.449Z,16.6
2023-10-10T17:01:43.717Z,14.9
2023-10-10T17:07:35.938Z,15.2
2023-10-10T17:13:27.831Z,15.4
2023-10-10T17:19:23.159Z,20.6
2023-10-10T17:25:15.082Z,18.1
2023-10-10T17:31:09.060Z,20.4
2023-10-10T17:37:00.437Z,17.8
2023-10-10T17:42:55.377Z,17.6
2023-10-10T17:48:48.437Z,19.7
2023-10-10T17:54:42.695Z,20.1
2023-10-10T18:00:38.704Z,17.8
2023-10-10T18:06:32.509Z,13.9
2023-10-10T18:12:23.623Z,13.7
2023-10-10T18:18:16.619Z,18.1
2023-10-10T18:24:09.881Z,17.7
2023-10-10T18:30:02.364Z,19.5
2023-10-10T18:35:55.787Z,17.6
2023-10-10T18:41:50.739Z,17.9
2023-10-10T18:47:43.376Z,18.4
2023-10-10T18:53:34.682Z,16.8
2023-10-10T18:59:27.017Z,16.7
2023-10-10T19:05:19.088Z,18.9
2023-10-10T19:11:11.810Z,19.5
2023-10-10T19:17:03.623Z,18.1
2023-10-10T19:22:55.698Z,18.7
2023-10-10T19:28:48.037Z,16.7
2023-10-10T19:34:41.069Z,15.2
2023-10-10T19:40:32.471Z,20.6
2023-10-10T19:46:26.458Z,14
2023-10-10T19:52:17.388Z,14.4
2023-10-10T19:58:09.754Z,12.9
2023-10-10T20:04:04.488Z,15.3
2023-10-10T20:09:57.005Z,14.5
2023-10-10T20:15:49.360Z,11.6
2023-10-10T20:21:41.219Z,14.9
2023-10-10T20:27:33.462Z,13
2023-10-10T20:33:27.647Z,14.4
2023-10-10T20:39:20.259Z,13.7
2023-10-10T20:45:12.358Z,10.6
2023-10-10T20:51:05.893Z,11.8
2023-10-10T20:56:57.807Z,12.3
2023-10-10T21:02:50.823Z,12
2023-10-10T21:08:49.862Z,12.4
2023-10-10T21:14:41.664Z,11.8
2023-10-10T21:20:37.810Z,13.9
2023-10-10T21:26:49.329Z,12
2023-10-10T21:32:43.952Z,10.6
2023-10-10T21:38:36.004Z,14.2
2023-10-10T21:44:32.221Z,13.6
2023-10-10T21:50:26.215Z,11.5
2023-10-10T21:56:18.317Z,15.4
2023-10-10T22:02:08.919Z,14.1
2023-10-10T22:08:02.801Z,12.3
2023-10-10T22:13:54.851Z,11.3
2023-10-10T22:19:48.868Z,12.7
2023-10-10T22:25:42.287Z,12.9
2023-10-10T22:31:38.664Z,11
2023-10-10T22:37:31.513Z,11.7
2023-10-10T22:43:24.236Z,12.2
2023-10-10T22:49:19.053Z,15.8
2023-10-10T22:55:11.297Z,12.7
2023-10-10T23:01:03.904Z,14.6
2023-10-10T23:06:56.616Z,13.6
2023-10-10T23:12:49.066Z,12.6
2023-10-10T23:18:41.782Z,16.3
2023-10-10T23:24:35.614Z,14.5
2023-10-10T23:30:29.537Z,10.3
2023-10-10T23:36:21.174Z,12.8
2023-10-10T23:42:13.546Z,15.7
2023-10-10T23:48:09.449Z,12.1
2023-10-10T23:54:01.923Z,14.5
2023-10-10T23:59:54.287Z,13.3
